This is the latest recevied weather packets stored in our database for station/object KE0FIN. If no packets are shown the sender has not sent any weather packets the latest 10 day(s).
| Time | Temp. | Humidity | Pressure | Rain* | Wind** | Luminosity | Snow |
|---|---|---|---|---|---|---|---|
| 1777822018 | 20.56° C | 47% | 1065.5 hPa | 0 mm | - | 87 W/m² | - |
| 1777821716 | 20° C | 47% | 1065.5 hPa | 0 mm | - | 407 W/m² | - |
| 1777821413 | 20° C | 48% | 1065.6 hPa | 0 mm | - | 351 W/m² | - |
| 1777820503 | 19.44° C | 50% | 1065.7 hPa | 0 mm | - | 351 W/m² | - |
| 1777818686 | 16.67° C | 57% | 1066 hPa | 0 mm | - | 272 W/m² | - |
| 1777818079 | 16.11° C | 58% | 1066.1 hPa | 0 mm | - | 244 W/m² | - |
| 1777817474 | 15.56° C | 60% | 1065.9 hPa | 0 mm | - | 259 W/m² | - |
| 1777817169 | 15° C | 60% | 1066.3 hPa | 0 mm | - | 153 W/m² | - |
| 1777816564 | 15° C | 62% | 1066.1 hPa | 0 mm | - | 51 W/m² | - |
| 1777814443 | 12.22° C | 67% | 1066.6 hPa | 0 mm | - | 39 W/m² | - |
| 1777814140 | 12.22° C | 68% | 1066.4 hPa | 0 mm | - | 28 W/m² | - |
| 1777813534 | 11.67° C | 69% | 1066.6 hPa | 0 mm | - | 25 W/m² | - |
| 1777809592 | 10° C | 71% | 1066.5 hPa | 0 mm | - | 11 W/m² | - |
| 1777804443 | 10° C | 67% | 1067.1 hPa | 0 mm | - | 0 W/m² | - |
| 1777802927 | 10.56° C | 66% | 1067.2 hPa | 0 mm | - | 0 W/m² | - |
| 1777801106 | 10.56° C | 64% | 1067.2 hPa | 0 mm | - | 0 W/m² | - |
| 1777800802 | 10° C | 64% | 1067.2 hPa | 0 mm | - | 0 W/m² | - |
| 1777800497 | 10° C | 64% | 1067.6 hPa | 0 mm | - | 0 W/m² | - |
| 1777800195 | 10° C | 64% | 1067.5 hPa | 0 mm | - | 0 W/m² | - |
| 1777799894 | 10° C | 64% | 1067.7 hPa | 0 mm | - | 0 W/m² | - |
| 1777799591 | 10° C | 64% | 1067.5 hPa | 0 mm | - | 0 W/m² | - |
| 1777799288 | 10° C | 64% | 1067.6 hPa | 0 mm | - | 0 W/m² | - |
| 1777798983 | 10° C | 64% | 1067.7 hPa | 0 mm | - | 0 W/m² | - |
| 1777798680 | 10° C | 64% | 1067.8 hPa | 0 mm | - | 0 W/m² | - |
| 1777798376 | 10° C | 63% | 1067.6 hPa | 0 mm | - | 0 W/m² | - |
* Rain latest hour (hover to see other rain measurements)
** Current wind speed in m/s (hover to see current wind gust speed)